Time;durP1;ratioP1;P1;durP2;ratioP2;P2;SDS_P1;SDS_P2;PMS_P1;PMS_P2;Temp;Humidity;BMP_temperature;BMP_pressure;BME280_temperature;BME280_humidity;BME280_pressure;Samples;Min_cycle;Max_cycle;Signal;HPM_P1;HPM_P2
2023/09/28 00:00:49;;;;;;;6.18;3.45;;;;;;;17.38;100.00;101322.31;5077583;28;20039;-76
2023/09/28 00:03:14;;;;;;;9.65;3.65;;;;;;;17.44;100.00;101335.09;5075854;28;20500;-76
2023/09/28 00:05:40;;;;;;;6.10;3.22;;;;;;;17.55;100.00;101326.63;5076681;28;20067;-77
2023/09/28 00:08:05;;;;;;;7.63;3.42;;;;;;;17.58;100.00;101328.13;5077140;28;20067;-76
2023/09/28 00:10:31;;;;;;;12.93;3.53;;;;;;;17.56;100.00;101325.63;5076825;28;20098;-77
2023/09/28 00:12:56;;;;;;;10.85;3.22;;;;;;;17.48;100.00;101325.66;5076788;28;20095;-76
2023/09/28 00:15:26;;;;;;;6.13;4.07;;;;;;;17.45;100.00;101331.38;5076872;28;20121;-77
2023/09/28 00:17:52;;;;;;;6.53;3.35;;;;;;;17.39;100.00;101329.38;5076875;28;20105;-76
2023/09/28 00:20:18;;;;;;;10.07;3.20;;;;;;;17.33;100.00;101340.81;5076733;28;20457;-75
2023/09/28 00:22:49;;;;;;;6.07;3.65;;;;;;;17.23;100.00;101346.41;5075302;28;20389;-77
2023/09/28 00:25:16;;;;;;;6.75;3.45;;;;;;;17.16;100.00;101345.41;5075394;28;20107;-76
2023/09/28 00:27:46;;;;;;;8.32;4.22;;;;;;;17.07;100.00;101349.94;5076552;28;20041;-76
2023/09/28 00:30:13;;;;;;;9.48;3.30;;;;;;;17.02;100.00;101347.75;5076488;28;20033;-75
2023/09/28 00:32:39;;;;;;;8.98;3.70;;;;;;;16.99;100.00;101360.69;5076647;28;20101;-75
2023/09/28 00:35:06;;;;;;;11.52;3.70;;;;;;;16.95;100.00;101365.56;5076455;28;20094;-75
2023/09/28 00:37:34;;;;;;;10.02;3.80;;;;;;;16.88;100.00;101368.09;5075029;28;20079;-75
2023/09/28 00:40:07;;;;;;;5.20;3.45;;;;;;;16.83;100.00;101372.25;5074960;28;20499;-77
2023/09/28 00:42:33;;;;;;;5.53;3.50;;;;;;;16.80;100.00;101370.72;5073416;28;20472;-77
2023/09/28 00:44:59;;;;;;;5.70;3.25;;;;;;;16.79;100.00;101373.59;5074851;28;20040;-77
2023/09/28 00:47:24;;;;;;;8.85;4.38;;;;;;;16.79;100.00;101370.91;5074636;28;20090;-77
2023/09/28 00:49:52;;;;;;;5.18;3.72;;;;;;;16.82;100.00;101373.25;5074439;28;20060;-78
2023/09/28 00:52:17;;;;;;;9.07;4.00;;;;;;;16.84;100.00;101369.41;5074608;28;20039;-77
2023/09/28 00:54:47;;;;;;;7.93;4.00;;;;;;;16.89;100.00;101369.75;5074642;28;20036;-76
2023/09/28 00:57:13;;;;;;;7.00;3.80;;;;;;;16.95;100.00;101370.09;5072627;28;20028;-77
2023/09/28 00:59:39;;;;;;;7.03;4.15;;;;;;;17.03;100.00;101376.31;5074322;28;20111;-78
2023/09/28 01:02:06;;;;;;;5.75;3.90;;;;;;;17.09;100.00;101382.84;5073129;28;20119;-78
2023/09/28 01:04:32;;;;;;;8.48;4.05;;;;;;;17.08;100.00;101373.97;5074130;28;20028;-77
2023/09/28 01:06:57;;;;;;;7.88;4.15;;;;;;;17.09;100.00;101383.72;5072492;28;20077;-76
2023/09/28 01:09:24;;;;;;;12.82;4.47;;;;;;;17.07;100.00;101382.19;5072946;28;20051;-78
2023/09/28 01:11:52;;;;;;;13.02;4.57;;;;;;;17.09;100.00;101377.47;5072795;28;20028;-76
2023/09/28 01:14:19;;;;;;;9.82;4.32;;;;;;;17.12;100.00;101382.50;5074050;28;20028;-76
2023/09/28 01:16:44;;;;;;;13.63;4.50;;;;;;;17.14;100.00;101385.91;5073693;28;20494;-78
2023/09/28 01:19:11;;;;;;;9.57;4.50;;;;;;;17.14;100.00;101382.34;5072519;28;20090;-77
2023/09/28 01:21:36;;;;;;;11.35;3.70;;;;;;;17.10;100.00;101379.16;5074036;28;20037;-77
2023/09/28 01:24:02;;;;;;;12.23;4.00;;;;;;;17.06;100.00;101369.75;5072751;28;20043;-77
2023/09/28 01:26:30;;;;;;;14.75;3.97;;;;;;;17.06;100.00;101380.50;5074585;28;20056;-77
2023/09/28 01:28:56;;;;;;;12.20;3.85;;;;;;;17.08;100.00;101375.81;5072550;28;20434;-75
2023/09/28 01:31:22;;;;;;;15.20;3.53;;;;;;;17.09;100.00;101377.47;5072373;28;20078;-76
2023/09/28 01:33:47;;;;;;;13.38;3.95;;;;;;;17.08;100.00;101390.09;5073845;28;20090;-75
2023/09/28 01:36:12;;;;;;;11.73;3.50;;;;;;;17.03;100.00;101386.22;5073614;28;20051;-77
2023/09/28 01:38:47;;;;;;;10.90;3.67;;;;;;;16.95;100.00;101383.53;5072269;28;20035;-77
2023/09/28 01:41:12;;;;;;;23.73;3.42;;;;;;;16.89;100.00;101387.75;5073763;28;20051;-77
2023/09/28 01:43:37;;;;;;;14.05;2.95;;;;;;;16.87;100.00;101387.06;5073320;28;20465;-78
2023/09/28 01:46:03;;;;;;;13.02;2.78;;;;;;;16.87;100.00;101392.44;5073481;28;20029;-76
2023/09/28 01:48:28;;;;;;;9.80;3.22;;;;;;;16.87;100.00;101395.97;5073661;28;20115;-77
2023/09/28 01:50:54;;;;;;;10.65;2.72;;;;;;;16.86;100.00;101399.63;5071853;28;20033;-77
2023/09/28 01:53:19;;;;;;;7.43;2.58;;;;;;;16.89;100.00;101393.94;5073441;28;20041;-77
2023/09/28 01:55:46;;;;;;;9.52;2.78;;;;;;;16.89;100.00;101391.25;5072087;28;20060;-78
2023/09/28 01:58:12;;;;;;;16.13;2.55;;;;;;;16.89;100.00;101395.81;5073458;28;20043;-78
2023/09/28 02:00:37;;;;;;;7.95;2.70;;;;;;;16.88;100.00;101394.13;5072045;28;20029;-78
2023/09/28 02:03:04;;;;;;;10.32;2.50;;;;;;;16.88;100.00;101391.44;5072640;28;20036;-76
2023/09/28 02:05:32;;;;;;;9.13;2.67;;;;;;;16.87;100.00;101401.34;5072805;28;20021;-76
2023/09/28 02:08:02;;;;;;;10.35;2.75;;;;;;;16.81;100.00;101401.97;5072771;28;20097;-75
2023/09/28 02:10:28;;;;;;;14.10;2.83;;;;;;;16.79;100.00;101400.47;5073096;28;20119;-77
2023/09/28 02:12:55;;;;;;;9.63;2.58;;;;;;;16.72;100.00;101403.81;5072206;28;20083;-75
2023/09/28 02:15:22;;;;;;;15.55;2.53;;;;;;;16.65;100.00;101397.41;5072958;28;20034;-75
2023/09/28 02:17:48;;;;;;;15.60;2.53;;;;;;;16.57;100.00;101400.09;5072261;28;20434;-75
2023/09/28 02:20:20;;;;;;;10.07;2.33;;;;;;;16.45;100.00;101404.09;5072677;28;20071;-76
2023/09/28 02:22:46;;;;;;;10.68;2.10;;;;;;;16.36;100.00;101403.22;5071879;28;20028;-78
2023/09/28 02:25:17;;;;;;;15.55;2.78;;;;;;;16.29;100.00;101403.03;5072826;28;20115;-75
2023/09/28 02:27:43;;;;;;;17.58;2.80;;;;;;;16.26;100.00;101398.00;5072478;28;20307;-76
2023/09/28 02:30:11;;;;;;;11.60;2.80;;;;;;;16.22;100.00;101408.22;5072819;28;20093;-76
2023/09/28 02:32:39;;;;;;;17.58;2.90;;;;;;;16.19;100.00;101411.22;5072685;28;20078;-76
2023/09/28 02:35:07;;;;;;;19.75;3.30;;;;;;;16.22;100.00;101402.84;5072729;28;20171;-76
2023/09/28 02:37:34;;;;;;;27.35;4.22;;;;;;;16.26;100.00;101410.56;5072355;28;20448;-76
2023/09/28 02:39:59;;;;;;;21.42;3.30;;;;;;;16.20;100.00;101410.22;5072494;28;20496;-76
2023/09/28 02:42:24;;;;;;;23.88;3.33;;;;;;;16.15;100.00;101426.00;5072718;28;20033;-76
2023/09/28 02:44:50;;;;;;;20.55;4.07;;;;;;;16.05;100.00;101427.97;5072431;28;20445;-75
2023/09/28 02:47:15;;;;;;;18.50;2.90;;;;;;;15.98;100.00;101434.97;5072411;28;20119;-77
2023/09/28 02:49:41;;;;;;;17.98;3.42;;;;;;;15.88;100.00;101435.06;5070699;28;20060;-79
2023/09/28 02:52:06;;;;;;;19.10;3.40;;;;;;;15.84;100.00;101442.59;5071875;28;20513;-77
2023/09/28 02:54:31;;;;;;;31.10;4.18;;;;;;;15.85;100.00;101444.31;5072073;28;20031;-76
2023/09/28 02:56:57;;;;;;;30.73;4.15;;;;;;;15.85;100.00;101451.50;5071857;28;20468;-76
2023/09/28 02:59:23;;;;;;;38.15;5.03;;;;;;;15.84;100.00;101447.16;5072448;28;20044;-76
2023/09/28 03:01:49;;;;;;;26.25;5.28;;;;;;;15.82;100.00;101451.81;5070728;28;20031;-75
2023/09/28 03:04:16;;;;;;;40.75;7.05;;;;;;;15.80;100.00;101462.69;5071919;28;20036;-76
2023/09/28 03:06:41;;;;;;;28.77;5.15;;;;;;;15.80;100.00;101469.91;5072272;28;20035;-76
2023/09/28 03:09:10;;;;;;;31.73;5.47;;;;;;;15.75;100.00;101469.50;5072310;28;20115;-84
2023/09/28 03:11:36;;;;;;;34.95;5.20;;;;;;;15.74;100.00;101479.41;5072153;28;20063;-77
2023/09/28 03:14:02;;;;;;;36.08;4.82;;;;;;;15.66;100.00;101465.94;5071762;28;20068;-78
2023/09/28 03:16:27;;;;;;;37.63;5.78;;;;;;;15.63;100.00;101483.19;5072026;28;20053;-75
2023/09/28 03:18:53;;;;;;;34.28;5.18;;;;;;;15.67;100.00;101481.03;5071565;28;20032;-77
2023/09/28 03:21:19;;;;;;;40.50;6.13;;;;;;;15.78;100.00;101482.63;5072001;28;20060;-75
2023/09/28 03:23:45;;;;;;;32.67;4.90;;;;;;;15.87;100.00;101479.03;5070912;28;20085;-78
2023/09/28 03:26:11;;;;;;;37.72;4.95;;;;;;;15.97;100.00;101478.91;5070711;28;20036;-77
2023/09/28 03:28:38;;;;;;;33.25;5.47;;;;;;;16.05;100.00;101487.00;5072170;28;20032;-77
2023/09/28 03:31:06;;;;;;;34.40;5.53;;;;;;;16.09;100.00;101482.97;5071835;28;20024;-77
2023/09/28 03:33:31;;;;;;;46.17;5.30;;;;;;;16.12;100.00;101487.19;5071650;28;20097;-77
2023/09/28 03:35:56;;;;;;;47.97;5.15;;;;;;;16.14;100.00;101483.34;5072399;28;20140;-77
2023/09/28 03:38:22;;;;;;;34.88;5.68;;;;;;;16.18;100.00;101467.75;5071751;28;20031;-78
2023/09/28 03:40:48;;;;;;;37.90;5.88;;;;;;;16.20;100.00;101480.03;5071707;28;20108;-77
2023/09/28 03:43:13;;;;;;;36.33;5.35;;;;;;;16.20;100.00;101485.41;5071641;28;20402;-77
2023/09/28 03:45:39;;;;;;;36.30;5.40;;;;;;;16.20;100.00;101481.88;5071705;28;20060;-77
2023/09/28 03:48:04;;;;;;;36.45;4.85;;;;;;;16.21;100.00;101489.78;5070372;28;20038;-77
2023/09/28 03:50:30;;;;;;;33.03;5.20;;;;;;;16.21;100.00;101488.91;5072242;28;20139;-78
2023/09/28 03:52:55;;;;;;;41.60;5.68;;;;;;;16.20;100.00;101498.00;5071857;28;20435;-76
2023/09/28 03:55:24;;;;;;;37.33;5.85;;;;;;;16.20;100.00;101496.13;5072187;28;20052;-78
2023/09/28 03:57:50;;;;;;;45.60;5.65;;;;;;;16.18;100.00;101500.84;5071731;28;20242;-75
2023/09/28 04:00:17;;;;;;;40.90;5.47;;;;;;;16.15;100.00;101503.84;5071622;28;20102;-77
2023/09/28 04:02:45;;;;;;;31.30;5.40;;;;;;;16.09;100.00;101496.41;5071353;28;20032;-76
2023/09/28 04:05:11;;;;;;;31.70;5.38;;;;;;;16.03;100.00;101505.09;5069803;28;20396;-77
2023/09/28 04:07:37;;;;;;;38.90;5.68;;;;;;;15.98;100.00;101502.06;5071035;28;20036;-77
2023/09/28 04:10:03;;;;;;;28.13;4.97;;;;;;;15.90;100.00;101502.00;5071144;28;20119;-74
2023/09/28 04:12:29;;;;;;;41.75;6.00;;;;;;;15.82;100.00;101508.16;5071234;28;20043;-79
2023/09/28 04:14:54;;;;;;;42.90;5.70;;;;;;;15.80;100.00;101527.09;5071281;28;20024;-76
2023/09/28 04:17:20;;;;;;;31.80;5.50;;;;;;;15.81;100.00;101527.94;5071176;28;20040;-78
2023/09/28 04:19:45;;;;;;;29.50;5.15;;;;;;;15.78;100.00;101518.38;5070830;28;20048;-76
2023/09/28 04:22:10;;;;;;;35.58;5.22;;;;;;;15.85;100.00;101507.84;5070908;28;20098;-75
2023/09/28 04:24:36;;;;;;;35.72;5.43;;;;;;;15.90;100.00;101524.31;5071283;28;20028;-75
2023/09/28 04:27:01;;;;;;;35.50;5.10;;;;;;;15.92;100.00;101524.16;5071446;28;20043;-76
2023/09/28 04:29:27;;;;;;;23.98;4.90;;;;;;;15.91;100.00;101533.19;5071270;28;20033;-77
2023/09/28 04:31:54;;;;;;;39.67;6.22;;;;;;;15.86;100.00;101550.59;5069960;28;20033;-77
2023/09/28 04:34:20;;;;;;;46.47;5.72;;;;;;;15.82;100.00;101538.53;5071160;28;20435;-82
2023/09/28 04:36:45;;;;;;;34.67;4.70;;;;;;;15.74;100.00;101543.78;5074622;28;20033;-77
2023/09/28 04:39:11;;;;;;;33.05;5.55;;;;;;;15.63;100.00;101531.47;5073483;28;20068;-75
2023/09/28 04:41:37;;;;;;;43.10;5.20;;;;;;;15.56;100.00;101533.09;5074711;28;20041;-76
2023/09/28 04:44:04;;;;;;;40.08;5.93;;;;;;;15.47;100.00;101534.84;5074496;28;20087;-76
2023/09/28 04:46:31;;;;;;;37.17;5.35;;;;;;;15.36;100.00;101540.47;5074226;28;20443;-75
2023/09/28 04:48:57;;;;;;;41.65;6.15;;;;;;;15.27;100.00;101539.53;5073440;28;20120;-75
2023/09/28 04:51:22;;;;;;;39.00;5.10;;;;;;;15.28;100.00;101541.19;5074856;28;20442;-77
2023/09/28 04:53:48;;;;;;;36.15;5.20;;;;;;;15.28;100.00;101548.41;5074708;28;20055;-77
2023/09/28 04:56:15;;;;;;;34.78;5.07;;;;;;;15.27;100.00;101544.91;5074478;28;20032;-76
2023/09/28 04:58:41;;;;;;;26.95;5.40;;;;;;;15.34;100.00;101550.47;5074281;28;20036;-76
2023/09/28 05:01:06;;;;;;;28.10;5.95;;;;;;;15.38;100.00;101561.75;5074542;28;20039;-78
2023/09/28 05:03:32;;;;;;;35.35;5.15;;;;;;;15.37;100.00;101563.56;5074030;28;20063;-77
2023/09/28 05:05:58;;;;;;;21.95;4.40;;;;;;;15.36;100.00;101564.59;5074116;28;20032;-76
2023/09/28 05:08:24;;;;;;;28.90;5.53;;;;;;;15.35;100.00;101570.94;5074555;28;20043;-77
2023/09/28 05:10:50;;;;;;;39.58;5.50;;;;;;;15.32;100.00;101560.53;5074222;28;20050;-76
2023/09/28 05:13:16;;;;;;;37.42;5.57;;;;;;;15.26;100.00;101563.81;5072888;28;20353;-75
2023/09/28 05:15:41;;;;;;;39.90;5.90;;;;;;;15.15;100.00;101562.19;5074339;28;20029;-78
2023/09/28 05:18:07;;;;;;;33.92;5.97;;;;;;;15.06;100.00;101571.13;5074207;28;20167;-76
2023/09/28 05:20:32;;;;;;;30.55;4.68;;;;;;;14.98;100.00;101561.16;5073912;28;20306;-76
2023/09/28 05:22:58;;;;;;;29.85;4.75;;;;;;;14.90;100.00;101559.25;5072724;28;20052;-77
2023/09/28 05:25:29;;;;;;;34.85;5.03;;;;;;;14.84;100.00;101565.22;5074276;28;20036;-76
2023/09/28 05:27:54;;;;;;;29.85;4.80;;;;;;;14.79;100.00;101575.50;5072743;28;20449;-78
2023/09/28 05:30:20;;;;;;;33.00;4.95;;;;;;;14.74;100.00;101575.13;5072425;28;20082;-78
2023/09/28 05:32:45;;;;;;;37.88;5.05;;;;;;;14.69;100.00;101580.06;5073474;28;20430;-77
2023/09/28 05:35:10;;;;;;;36.00;5.22;;;;;;;14.63;100.00;101590.41;5074918;28;20033;-78
2023/09/28 05:37:36;;;;;;;34.15;4.88;;;;;;;14.56;100.00;101593.78;5073527;28;20036;-78
2023/09/28 05:40:04;;;;;;;38.08;5.25;;;;;;;14.53;100.00;101594.91;5073704;28;20116;-79
2023/09/28 05:42:33;;;;;;;28.33;4.63;;;;;;;14.57;100.00;101595.44;5071993;28;20036;-84
2023/09/28 05:44:58;;;;;;;32.90;4.65;;;;;;;14.60;100.00;101581.75;5071997;28;20150;-80
2023/09/28 05:47:24;;;;;;;35.30;5.13;;;;;;;14.67;100.00;101598.97;5072343;28;20047;-80
2023/09/28 05:50:07;;;;;;;31.30;5.50;;;;;;;14.72;100.00;101595.84;5073466;28;20056;-81
2023/09/28 05:52:33;;;;;;;30.05;5.47;;;;;;;14.81;100.00;101589.63;5072097;28;20040;-79
2023/09/28 05:54:59;;;;;;;36.10;5.40;;;;;;;14.84;100.00;101594.69;5071741;28;20530;-80
2023/09/28 05:57:24;;;;;;;37.25;4.80;;;;;;;14.88;100.00;101584.50;5073491;28;20021;-79
2023/09/28 05:59:49;;;;;;;31.10;4.72;;;;;;;14.92;100.00;101585.88;5072918;28;20032;-81
2023/09/28 06:02:15;;;;;;;28.05;4.13;;;;;;;14.95;100.00;101599.81;5073137;28;20070;-80
2023/09/28 06:04:42;;;;;;;33.80;5.22;;;;;;;14.99;100.00;101605.75;5073317;28;20480;-80
2023/09/28 06:07:10;;;;;;;40.40;5.05;;;;;;;15.02;100.00;101613.47;5073107;28;20028;-80
2023/09/28 06:09:35;;;;;;;30.60;5.07;;;;;;;15.05;100.00;101613.19;5073435;28;20031;-79
2023/09/28 06:12:01;;;;;;;26.65;5.03;;;;;;;15.06;100.00;101614.88;5072981;28;20203;-77
2023/09/28 06:14:27;;;;;;;35.17;4.68;;;;;;;15.08;100.00;101610.19;5075477;28;20033;-80
2023/09/28 06:16:53;;;;;;;33.10;5.53;;;;;;;15.10;100.00;101613.56;5072784;28;20036;-78
2023/09/28 06:19:19;;;;;;;37.72;6.07;;;;;;;15.12;100.00;101614.28;5072867;28;20028;-80
2023/09/28 06:21:44;;;;;;;32.65;5.13;;;;;;;15.15;100.00;101615.78;5071556;28;20025;-80
2023/09/28 06:24:09;;;;;;;32.55;5.05;;;;;;;15.19;100.00;101624.38;5072713;28;20122;-79
2023/09/28 06:26:37;;;;;;;47.17;5.72;;;;;;;15.24;100.00;101622.94;5072461;28;20119;-79
2023/09/28 06:29:03;;;;;;;38.60;4.53;;;;;;;15.26;100.00;101630.84;5054585;28;20028;-76
2023/09/28 06:31:29;;;;;;;30.98;4.78;;;;;;;15.28;100.00;101635.03;5072193;28;20025;-78
2023/09/28 06:33:54;;;;;;;35.05;6.15;;;;;;;15.32;100.00;101633.75;5070639;28;20453;-80
2023/09/28 06:36:20;;;;;;;29.33;5.10;;;;;;;15.36;100.00;101649.53;5072576;28;20480;-79
2023/09/28 06:38:47;;;;;;;30.10;4.43;;;;;;;15.39;100.00;101655.44;5072105;28;20059;-79
2023/09/28 06:41:13;;;;;;;33.25;5.57;;;;;;;15.40;100.00;101658.97;5071969;28;20040;-80
2023/09/28 06:43:39;;;;;;;36.15;6.13;;;;;;;15.45;100.00;101662.03;5071761;28;20033;-79
2023/09/28 06:46:04;;;;;;;40.97;5.18;;;;;;;15.46;100.00;101653.81;5071598;28;20088;-80
2023/09/28 06:48:30;;;;;;;29.63;4.97;;;;;;;15.55;100.00;101659.28;5072028;28;20105;-80
2023/09/28 06:50:59;;;;;;;36.03;5.70;;;;;;;15.60;100.00;101652.47;5071385;28;20460;-79
2023/09/28 06:53:24;;;;;;;39.05;5.60;;;;;;;15.65;100.00;101655.53;5071523;28;20032;-80
2023/09/28 06:55:50;;;;;;;29.48;5.15;;;;;;;15.74;100.00;101648.41;5071878;28;20090;-79
2023/09/28 06:58:17;;;;;;;36.05;5.30;;;;;;;15.81;100.00;101649.53;5071812;28;20426;-80
2023/09/28 07:00:43;;;;;;;35.85;5.20;;;;;;;15.86;100.00;101644.53;5071801;28;20028;-79
2023/09/28 07:03:09;;;;;;;37.35;6.10;;;;;;;15.90;100.00;101644.22;5072744;28;20029;-76
2023/09/28 07:05:35;;;;;;;39.30;5.68;;;;;;;15.89;100.00;101647.91;5073034;28;20482;-77
2023/09/28 07:08:03;;;;;;;33.50;5.22;;;;;;;15.88;100.00;101654.28;5072503;28;20047;-78
2023/09/28 07:10:29;;;;;;;34.85;5.45;;;;;;;15.92;100.00;101655.66;5072848;28;20086;-80
2023/09/28 07:12:54;;;;;;;30.00;5.60;;;;;;;15.97;100.00;101664.06;5072568;28;20036;-79
2023/09/28 07:15:22;;;;;;;31.88;4.75;;;;;;;15.98;100.00;101663.91;5071833;28;20411;-82
2023/09/28 07:17:47;;;;;;;36.65;4.80;;;;;;;15.99;100.00;101681.72;5072479;28;20441;-79
2023/09/28 07:20:14;;;;;;;35.65;4.70;;;;;;;16.08;100.00;101685.31;5072682;28;20038;-77
2023/09/28 07:22:40;;;;;;;34.35;5.07;;;;;;;16.12;100.00;101691.22;5071331;28;20124;-80
2023/09/28 07:25:06;;;;;;;33.05;4.50;;;;;;;16.15;100.00;101686.41;5072464;28;20494;-81
2023/09/28 07:27:32;;;;;;;35.90;5.85;;;;;;;16.15;100.00;101694.44;5072334;28;20056;-78
2023/09/28 07:29:59;;;;;;;25.52;4.35;;;;;;;16.13;100.00;101695.59;5071365;28;20499;-76
2023/09/28 07:32:29;;;;;;;35.13;5.90;;;;;;;16.14;100.00;101706.16;5072833;28;20036;-76
2023/09/28 07:34:54;;;;;;;33.95;5.82;;;;;;;16.19;100.00;101703.84;5072033;28;20051;-76
2023/09/28 07:37:20;;;;;;;34.85;5.13;;;;;;;16.27;100.00;101710.28;5072357;28;20032;-76
2023/09/28 07:39:46;;;;;;;40.78;5.47;;;;;;;16.28;100.00;101707.47;5073482;28;20083;-79
2023/09/28 07:42:11;;;;;;;29.95;5.07;;;;;;;16.32;100.00;101706.16;5055010;28;20469;-78
2023/09/28 07:44:40;;;;;;;36.22;5.38;;;;;;;16.34;100.00;101711.38;5072860;28;20480;-83
2023/09/28 07:47:08;;;;;;;26.52;4.95;;;;;;;16.28;100.00;101707.47;5073234;28;20345;-81
2023/09/28 07:49:33;;;;;;;36.38;4.93;;;;;;;16.28;100.00;101728.09;5073812;28;20147;-84
2023/09/28 07:52:01;;;;;;;33.80;6.13;;;;;;;16.23;100.00;101731.25;5074289;28;20115;-81
2023/09/28 07:54:26;;;;;;;32.22;4.88;;;;;;;16.21;100.00;101722.50;5072869;28;20059;-82
2023/09/28 07:56:51;;;;;;;30.50;4.35;;;;;;;16.19;100.00;101711.06;5074514;28;20033;-81
2023/09/28 07:59:17;;;;;;;29.08;5.03;;;;;;;16.26;100.00;101712.16;5074351;28;20028;-84
2023/09/28 08:01:42;;;;;;;35.83;6.10;;;;;;;16.35;100.00;101724.63;5074324;28;20477;-83
2023/09/28 08:04:08;;;;;;;34.00;5.30;;;;;;;16.48;100.00;101736.81;5075111;28;20084;-82
2023/09/28 08:06:34;;;;;;;27.75;4.47;;;;;;;16.53;100.00;101731.81;5075059;28;20122;-81
2023/09/28 08:09:00;;;;;;;33.97;5.15;;;;;;;16.58;100.00;101737.56;5074475;28;20033;-83
2023/09/28 08:11:26;;;;;;;45.47;5.63;;;;;;;16.62;100.00;101740.78;5076395;28;20029;-75
2023/09/28 08:13:51;;;;;;;32.17;5.05;;;;;;;16.61;100.00;101747.16;5076730;28;20040;-78
2023/09/28 08:16:17;;;;;;;32.38;4.35;;;;;;;16.61;100.00;101742.63;5076859;28;20039;-76
2023/09/28 08:18:42;;;;;;;24.60;4.45;;;;;;;16.63;100.00;101739.78;5076141;28;20055;-77
2023/09/28 08:21:09;;;;;;;36.08;6.60;;;;;;;16.67;100.00;101739.31;5075054;28;20037;-75
2023/09/28 08:23:37;;;;;;;34.40;4.80;;;;;;;16.80;100.00;101741.59;5076119;28;20028;-76
2023/09/28 08:26:02;;;;;;;32.22;4.95;;;;;;;17.00;100.00;101736.84;5076437;28;20392;-77
2023/09/28 08:28:29;;;;;;;32.70;5.68;;;;;;;17.27;100.00;101735.81;5076408;28;20036;-76
2023/09/28 08:30:56;;;;;;;36.35;5.30;;;;;;;17.55;100.00;101734.75;5074754;28;20046;-79
2023/09/28 08:33:21;;;;;;;24.20;4.57;;;;;;;17.67;100.00;101735.28;5075913;28;20047;-76
2023/09/28 08:35:48;;;;;;;35.28;5.28;;;;;;;17.68;100.00;101735.13;5076298;28;20379;-76
2023/09/28 08:38:14;;;;;;;29.90;4.80;;;;;;;17.60;100.00;101730.56;5076333;28;20036;-77
2023/09/28 08:40:40;;;;;;;34.58;5.35;;;;;;;17.63;100.00;101748.25;5075894;28;20044;-78
2023/09/28 08:43:10;;;;;;;24.80;4.75;;;;;;;17.75;100.00;101748.75;5075662;28;20036;-78
2023/09/28 08:45:38;;;;;;;29.52;4.82;;;;;;;17.81;100.00;101753.50;5075622;28;20028;-77
2023/09/28 08:48:06;;;;;;;32.65;5.47;;;;;;;17.98;100.00;101754.41;5075511;28;20413;-76
2023/09/28 08:50:37;;;;;;;28.95;5.18;;;;;;;18.13;100.00;101760.78;5075694;28;20357;-77
2023/09/28 08:53:04;;;;;;;;;;;;;;;18.05;100.00;101765.31;5075591;28;20028;-77
2023/09/28 08:55:32;;;;;;;28.17;3.97;;;;;;;17.97;100.00;101775.09;5075370;28;19912;-78
2023/09/28 08:57:58;;;;;;;32.60;5.32;;;;;;;17.76;100.00;101782.72;5075678;28;20033;-76
2023/09/28 09:00:24;;;;;;;30.10;4.60;;;;;;;17.57;100.00;101773.06;5075441;28;20035;-77
2023/09/28 09:02:53;;;;;;;24.02;4.15;;;;;;;17.54;100.00;101770.72;5075709;28;20028;-77
2023/09/28 09:05:18;;;;;;;27.75;5.95;;;;;;;17.40;100.00;101783.78;5075820;28;20174;-77
2023/09/28 09:07:44;;;;;;;31.42;4.40;;;;;;;17.30;100.00;101784.91;5075540;28;20119;-77
2023/09/28 09:10:17;;;;;;;27.38;4.57;;;;;;;17.13;100.00;101779.44;5075292;28;20068;-77
2023/09/28 09:12:43;;;;;;;33.33;4.80;;;;;;;17.02;100.00;101775.19;5075739;28;20433;-77
2023/09/28 09:15:09;;;;;;;33.53;5.18;;;;;;;16.98;100.00;101771.13;5074412;28;20028;-75
2023/09/28 09:17:35;;;;;;;26.52;4.43;;;;;;;16.94;100.00;101766.22;5073907;28;20040;-76
2023/09/28 09:20:02;;;;;;;30.08;4.85;;;;;;;16.96;100.00;101773.13;5074561;28;20037;-77
2023/09/28 09:22:28;;;;;;;28.65;6.15;;;;;;;17.09;100.00;101780.75;5073901;28;20119;-77
2023/09/28 09:24:58;;;;;;;27.52;5.40;;;;;;;17.32;100.00;101789.13;5074977;28;20538;-76
2023/09/28 09:27:31;;;;;;;29.40;4.82;;;;;;;17.54;100.00;101789.53;5075378;28;20396;-76
2023/09/28 09:30:07;;;;;;;30.38;5.32;;;;;;;17.76;100.00;101774.66;5075445;28;20032;-84
2023/09/28 09:32:34;;;;;;;29.55;4.78;;;;;;;17.81;100.00;101775.03;5076585;28;20029;-85
2023/09/28 09:35:00;;;;;;;34.78;5.20;;;;;;;17.84;100.00;101773.84;5077633;28;20036;-86
2023/09/28 09:37:26;;;;;;;32.53;4.45;;;;;;;17.80;100.00;101774.16;5076261;28;20139;-84
2023/09/28 09:39:51;;;;;;;31.45;5.20;;;;;;;17.76;100.00;101764.72;5076084;28;20028;-85
2023/09/28 09:42:29;;;;;;;32.08;5.10;;;;;;;17.80;100.00;101767.94;5075287;28;20040;-86
2023/09/28 09:44:55;;;;;;;28.45;4.32;;;;;;;17.99;100.00;101764.16;5074775;28;20173;-87
2023/09/28 09:47:20;;;;;;;23.08;4.38;;;;;;;18.09;100.00;101764.84;5075968;28;20036;-88
2023/09/28 09:49:50;;;;;;;29.20;5.82;;;;;;;18.08;100.00;101770.41;5073436;28;20044;-87
2023/09/28 09:52:19;;;;;;;30.10;4.35;;;;;;;18.11;100.00;101762.81;5074422;28;20052;-87
2023/09/28 09:54:46;;;;;;;32.80;5.07;;;;;;;18.14;100.00;101770.56;5075004;28;20056;-85
2023/09/28 09:57:16;;;;;;;32.08;4.47;;;;;;;18.20;100.00;101762.81;5075369;28;20029;-78
2023/09/28 09:59:48;;;;;;;19.25;4.32;;;;;;;18.27;100.00;101766.53;5073644;28;20036;-80
2023/09/28 10:02:41;;;;;;;28.80;4.90;;;;;;;18.23;100.00;101775.97;5074813;28;20123;-82
2023/09/28 10:05:09;;;;;;;31.13;4.68;;;;;;;18.13;100.00;101778.81;5073217;28;20453;-81
2023/09/28 10:07:37;;;;;;;24.05;4.22;;;;;;;17.98;100.00;101775.94;5074562;28;20028;-80
2023/09/28 10:10:03;;;;;;;31.58;4.43;;;;;;;17.91;100.00;101785.66;5075849;28;20029;-82
2023/09/28 10:12:30;;;;;;;30.70;5.40;;;;;;;17.81;100.00;101785.78;5074582;28;20037;-81
2023/09/28 10:14:58;;;;;;;33.10;6.68;;;;;;;17.93;100.00;101789.06;5074260;28;20028;-80
2023/09/28 10:17:28;;;;;;;35.65;5.75;;;;;;;18.05;100.00;101786.88;5073262;28;20037;-81
2023/09/28 10:19:57;;;;;;;35.47;5.32;;;;;;;18.14;100.00;101789.44;5073621;28;20393;-82
2023/09/28 10:22:22;;;;;;;27.83;5.15;;;;;;;18.27;100.00;101786.25;5057055;28;20082;-82
2023/09/28 10:24:48;;;;;;;24.88;4.43;;;;;;;18.44;100.00;101783.56;5073282;28;20082;-81
2023/09/28 10:27:14;;;;;;;29.75;5.53;;;;;;;18.54;100.00;101780.69;5074152;28;20029;-81
2023/09/28 10:29:41;;;;;;;23.85;4.22;;;;;;;18.58;100.00;101788.25;5074281;28;20456;-79
2023/09/28 10:32:13;;;;;;;24.23;4.20;;;;;;;18.57;100.00;101791.13;5075682;28;20088;-80
2023/09/28 10:34:43;;;;;;;28.20;4.57;;;;;;;18.42;100.00;101790.97;5074624;28;20468;-81
2023/09/28 10:37:10;;;;;;;30.80;4.70;;;;;;;18.40;100.00;101790.28;5075518;28;20135;-80
2023/09/28 10:39:36;;;;;;;25.15;4.38;;;;;;;18.46;100.00;101787.75;5074406;28;20024;-79
2023/09/28 10:42:22;;;;;;;22.75;4.20;;;;;;;18.40;100.00;101791.13;5074661;28;20033;-81
2023/09/28 10:44:52;;;;;;;23.70;3.50;;;;;;;18.20;100.00;101798.69;5074629;28;20436;-82
2023/09/28 10:47:19;;;;;;;23.50;5.18;;;;;;;18.11;100.00;101795.16;5073249;28;20040;-82
2023/09/28 10:49:45;;;;;;;29.02;4.32;;;;;;;18.02;100.00;101806.91;5072765;28;20480;-81
2023/09/28 10:52:11;;;;;;;38.55;5.43;;;;;;;18.00;100.00;101800.00;5071520;28;20143;-81
2023/09/28 10:54:38;;;;;;;26.02;4.18;;;;;;;18.00;100.00;101795.44;5073049;28;20032;-82
2023/09/28 10:57:03;;;;;;;25.63;4.45;;;;;;;18.09;100.00;101794.47;5073399;28;20105;-81
2023/09/28 10:59:29;;;;;;;27.58;4.20;;;;;;;18.24;100.00;101804.59;5073519;28;20449;-81
2023/09/28 11:01:54;;;;;;;26.83;3.55;;;;;;;18.28;100.00;101820.25;5072377;28;20491;-80
2023/09/28 11:04:20;;;;;;;24.83;4.47;;;;;;;18.30;100.00;101833.53;5072530;28;20032;-79
2023/09/28 11:06:45;;;;;;;26.45;4.25;;;;;;;18.22;100.00;101833.53;5072387;28;20437;-81